createdAt,value
2022-10-19T00:03:10.134Z,69.74
2022-10-19T00:08:15.622Z,69.34
2022-10-19T00:13:21.146Z,69.42
2022-10-19T00:18:26.598Z,69.23
2022-10-19T00:23:32.223Z,69.53
2022-10-19T00:28:37.946Z,69.48
2022-10-19T00:33:46.263Z,69.59
2022-10-19T00:38:51.985Z,69.35
2022-10-19T00:44:00.315Z,69.40
2022-10-19T00:49:25.252Z,69.59
2022-10-19T00:54:32.796Z,69.27
2022-10-19T00:59:39.722Z,69.45
2022-10-19T01:04:48.225Z,69.10
2022-10-19T01:09:54.844Z,69.34
2022-10-19T01:15:06.247Z,68.99
2022-10-19T01:20:35.774Z,69.06
2022-10-19T01:25:53.189Z,69.25
2022-10-19T01:31:04.632Z,69.61
2022-10-19T01:36:31.620Z,69.66
2022-10-19T01:41:46.539Z,69.72
2022-10-19T01:46:54.966Z,69.90
2022-10-19T01:52:03.420Z,69.98
2022-10-19T01:57:11.981Z,69.60
2022-10-19T02:02:20.188Z,69.90
2022-10-19T02:07:27.305Z,69.78
2022-10-19T02:12:33.732Z,70.14
2022-10-19T02:17:42.441Z,70.83
2022-10-19T02:22:48.030Z,71.50
2022-10-19T02:27:53.767Z,71.86
2022-10-19T02:32:59.313Z,72.71
2022-10-19T02:38:07.011Z,73.64
2022-10-19T02:43:15.419Z,73.41
2022-10-19T02:48:24.025Z,73.75
2022-10-19T02:53:30.246Z,75.06
2022-10-19T02:58:35.736Z,75.39
2022-10-19T03:03:41.198Z,75.47
2022-10-19T03:08:46.713Z,76.06
2022-10-19T03:13:52.167Z,76.96
2022-10-19T03:18:57.689Z,77.14
2022-10-19T03:24:03.201Z,77.59
2022-10-19T03:29:09.120Z,77.84
2022-10-19T03:34:14.598Z,78.26
2022-10-19T03:39:20.266Z,78.59
2022-10-19T03:44:25.736Z,79.13
2022-10-19T03:49:31.180Z,79.19
2022-10-19T03:54:36.766Z,79.32
2022-10-19T03:59:42.432Z,79.58
2022-10-19T04:04:48.935Z,79.89
2022-10-19T04:09:54.380Z,80.04
2022-10-19T04:14:59.872Z,79.96
2022-10-19T04:20:06.343Z,80.22
2022-10-19T04:25:12.901Z,80.18
2022-10-19T04:30:18.490Z,80.77
2022-10-19T04:35:23.996Z,80.46
2022-10-19T04:40:29.454Z,80.52
2022-10-19T04:45:36.732Z,80.64
2022-10-19T04:50:42.156Z,80.40
2022-10-19T04:55:49.371Z,80.72
2022-10-19T05:00:54.864Z,80.69
2022-10-19T05:06:00.941Z,80.97
2022-10-19T05:11:09.591Z,81.25
2022-10-19T05:16:20.940Z,81.49
2022-10-19T05:21:28.899Z,81.64
2022-10-19T05:26:34.354Z,81.62
2022-10-19T05:31:39.936Z,81.95
2022-10-19T05:36:45.328Z,81.89
2022-10-19T05:41:50.971Z,82.27
2022-10-19T05:46:56.489Z,82.11
2022-10-19T05:52:02.013Z,81.98
2022-10-19T05:57:07.532Z,82.08
2022-10-19T06:02:14.855Z,82.05
2022-10-19T06:07:20.409Z,82.47
2022-10-19T06:12:25.954Z,82.27
2022-10-19T06:17:31.810Z,82.39
2022-10-19T06:22:37.426Z,82.29
2022-10-19T06:27:42.867Z,82.49
2022-10-19T06:32:48.422Z,82.82
2022-10-19T06:37:53.983Z,82.50
2022-10-19T06:42:59.610Z,82.75
2022-10-19T06:48:07.659Z,83.33
2022-10-19T06:53:13.165Z,82.59
2022-10-19T06:58:18.693Z,82.32
2022-10-19T07:03:24.824Z,81.74
2022-10-19T07:08:32.199Z,81.22
2022-10-19T07:13:38.588Z,81.78
2022-10-19T07:18:44.293Z,81.73
2022-10-19T07:23:51.385Z,81.49
2022-10-19T07:28:58.312Z,81.20
2022-10-19T07:34:06.111Z,81.29
2022-10-19T07:39:12.817Z,81.42
2022-10-19T07:44:18.420Z,81.57
2022-10-19T07:49:24.016Z,81.69
2022-10-19T07:54:29.620Z,81.97
2022-10-19T07:59:36.150Z,81.38
2022-10-19T08:05:00.700Z,81.48
2022-10-19T08:09:53.269Z,80.85
2022-10-19T08:14:55.903Z,80.96
2022-10-19T08:20:01.517Z,80.95
2022-10-19T08:25:07.688Z,81.05
2022-10-19T08:30:13.367Z,80.64
2022-10-19T08:35:18.966Z,80.94
2022-10-19T08:40:30.683Z,80.41
2022-10-19T08:45:44.990Z,79.38
2022-10-19T08:50:51.131Z,79.18
2022-10-19T08:56:38.848Z,78.77
2022-10-19T09:01:47.023Z,78.49
2022-10-19T09:06:58.634Z,78.49
2022-10-19T09:12:07.100Z,78.26
2022-10-19T09:17:17.087Z,76.91
2022-10-19T09:22:28.344Z,76.94
2022-10-19T09:27:36.804Z,76.51
2022-10-19T09:32:43.113Z,76.27
2022-10-19T09:37:50.800Z,75.83
2022-10-19T09:43:01.632Z,75.20
2022-10-19T09:48:13.105Z,73.30
2022-10-19T09:53:20.905Z,72.94
2022-10-19T09:58:32.095Z,72.98
2022-10-19T10:03:43.766Z,73.18
2022-10-19T10:08:56.702Z,70.96
2022-10-19T10:14:20.222Z,70.76
2022-10-19T10:19:28.757Z,70.50
2022-10-19T10:24:35.401Z,69.99
2022-10-19T10:29:40.952Z,69.55
2022-10-19T10:35:07.451Z,67.79
2022-10-19T10:40:25.111Z,67.10
2022-10-19T10:45:45.530Z,66.90
2022-10-19T10:50:52.212Z,66.35
2022-10-19T10:55:58.396Z,65.58
2022-10-19T11:01:07.834Z,64.09
2022-10-19T11:06:15.684Z,64.17
2022-10-19T11:11:33.202Z,62.46
2022-10-19T11:16:47.833Z,62.16
2022-10-19T11:22:15.722Z,61.37
2022-10-19T11:27:43.514Z,60.51
2022-10-19T11:33:18.700Z,59.90
2022-10-19T11:39:00.644Z,59.06
2022-10-19T11:44:14.813Z,59.93
2022-10-19T11:49:41.154Z,58.19
2022-10-19T11:54:55.231Z,57.63
2022-10-19T12:05:34.574Z,58.23
2022-10-19T12:11:01.138Z,57.87
2022-10-19T12:16:08.366Z,57.21
2022-10-19T12:21:41.255Z,56.36
2022-10-19T12:26:48.157Z,56.55
2022-10-19T12:31:55.179Z,56.72
2022-10-19T12:37:03.636Z,55.81
2022-10-19T12:42:23.994Z,55.58
2022-10-19T12:47:29.503Z,55.11
2022-10-19T12:52:51.661Z,53.94
2022-10-19T12:58:03.729Z,54.08
2022-10-19T13:03:26.246Z,53.95
2022-10-19T13:08:34.037Z,53.48
2022-10-19T13:14:00.808Z,52.77
2022-10-19T13:19:18.020Z,52.84
2022-10-19T13:24:29.321Z,51.97
2022-10-19T13:29:44.827Z,52.40
2022-10-19T13:34:50.645Z,52.38
2022-10-19T13:39:56.237Z,52.08
2022-10-19T13:45:01.757Z,52.22
2022-10-19T13:50:25.112Z,51.62
2022-10-19T13:55:51.772Z,50.55
2022-10-19T14:01:05.876Z,50.25
2022-10-19T14:06:31.169Z,50.60
2022-10-19T14:11:39.621Z,49.91
2022-10-19T14:16:56.084Z,49.68
2022-10-19T14:22:05.344Z,50.07
2022-10-19T14:27:13.808Z,49.67
2022-10-19T14:32:24.186Z,50.04
2022-10-19T14:37:30.005Z,50.09
2022-10-19T14:42:46.988Z,50.38
2022-10-19T14:48:03.737Z,50.02
2022-10-19T14:53:21.473Z,50.52
2022-10-19T14:58:28.844Z,50.75
2022-10-19T15:03:38.098Z,50.63
2022-10-19T15:08:47.840Z,51.00
2022-10-19T15:13:59.095Z,51.07
2022-10-19T15:19:07.631Z,51.32
2022-10-19T15:24:28.444Z,51.68
2022-10-19T15:29:34.492Z,51.89
2022-10-19T15:34:42.540Z,52.06
2022-10-19T15:39:49.128Z,52.25
2022-10-19T15:44:54.734Z,52.62
2022-10-19T15:50:02.868Z,52.70
2022-10-19T15:55:08.483Z,53.06
2022-10-19T16:00:16.740Z,53.05
2022-10-19T16:05:22.501Z,53.51
2022-10-19T16:10:29.250Z,53.53
2022-10-19T16:15:34.721Z,54.01
2022-10-19T16:20:40.524Z,54.21
2022-10-19T16:25:46.143Z,54.35
2022-10-19T16:30:55.322Z,54.66
2022-10-19T16:36:02.518Z,54.93
2022-10-19T16:41:10.096Z,55.90
2022-10-19T16:46:16.069Z,56.28
2022-10-19T16:51:39.678Z,56.02
2022-10-19T16:56:47.604Z,56.17
2022-10-19T17:01:54.168Z,56.29
2022-10-19T17:06:59.745Z,56.71
2022-10-19T17:12:06.328Z,56.97
2022-10-19T17:17:12.934Z,57.33
2022-10-19T17:22:18.535Z,57.43
2022-10-19T17:27:24.125Z,58.07
2022-10-19T17:32:29.748Z,58.35
2022-10-19T17:37:35.476Z,58.70
2022-10-19T17:42:41.540Z,59.05
2022-10-19T17:47:47.065Z,59.36
2022-10-19T17:52:52.667Z,59.81
2022-10-19T17:57:58.228Z,59.96
2022-10-19T18:03:03.758Z,60.39
2022-10-19T18:08:09.488Z,60.82
2022-10-19T18:13:15.031Z,61.21
2022-10-19T18:18:23.260Z,61.51
2022-10-19T18:23:28.875Z,61.76
2022-10-19T18:28:35.162Z,62.08
2022-10-19T18:33:41.306Z,62.41
2022-10-19T18:38:48.182Z,62.73
2022-10-19T18:43:56.620Z,63.10
2022-10-19T18:49:03.344Z,63.42
2022-10-19T18:54:08.916Z,63.51
2022-10-19T18:59:14.453Z,63.60
2022-10-19T19:04:20.344Z,63.95
2022-10-19T19:09:25.785Z,64.11
2022-10-19T19:14:31.330Z,64.36
2022-10-19T19:19:36.923Z,64.73
2022-10-19T19:24:42.437Z,64.78
2022-10-19T19:29:47.894Z,65.07
2022-10-19T19:34:54.833Z,65.21
2022-10-19T19:40:00.467Z,65.51
2022-10-19T19:45:06.698Z,65.66
2022-10-19T19:50:12.326Z,65.83
2022-10-19T19:55:18.972Z,65.81
2022-10-19T20:00:25.744Z,66.02
2022-10-19T20:05:31.196Z,66.19
2022-10-19T20:10:41.761Z,66.57
2022-10-19T20:15:47.297Z,66.73
2022-10-19T20:20:52.885Z,66.73
2022-10-19T20:25:58.409Z,66.95
2022-10-19T20:31:06.021Z,67.23
2022-10-19T20:36:14.126Z,67.46
2022-10-19T20:41:20.840Z,67.69
2022-10-19T20:46:29.775Z,67.84
2022-10-19T20:51:39.874Z,67.68
2022-10-19T20:56:45.331Z,68.19
2022-10-19T21:01:52.384Z,68.03
2022-10-19T21:06:58.075Z,68.35
2022-10-19T21:12:03.544Z,68.48
2022-10-19T21:17:09.049Z,68.27
2022-10-19T21:22:14.789Z,68.69
2022-10-19T21:27:20.298Z,68.85
2022-10-19T21:32:26.473Z,68.93
2022-10-19T21:37:32.238Z,68.66
2022-10-19T21:42:38.092Z,68.94
2022-10-19T21:47:43.599Z,69.08
2022-10-19T21:52:49.196Z,69.08
2022-10-19T21:57:54.648Z,69.06
2022-10-19T22:03:00.171Z,69.46
2022-10-19T22:08:05.866Z,69.24
2022-10-19T22:13:11.379Z,69.24
2022-10-19T22:18:16.901Z,69.56
2022-10-19T22:23:22.267Z,69.51
2022-10-19T22:28:28.581Z,69.34
2022-10-19T22:33:35.157Z,69.52
2022-10-19T22:38:41.174Z,69.67
2022-10-19T22:43:46.835Z,69.74
2022-10-19T22:48:52.358Z,69.68
2022-10-19T22:53:57.883Z,69.63
2022-10-19T22:59:05.568Z,69.55
2022-10-19T23:04:11.178Z,69.60
2022-10-19T23:09:16.695Z,69.89
2022-10-19T23:14:22.067Z,69.82
2022-10-19T23:19:27.627Z,70.03
2022-10-19T23:24:33.136Z,70.08
2022-10-19T23:29:38.524Z,69.93
2022-10-19T23:34:47.444Z,69.86
2022-10-19T23:39:51.342Z,69.91
2022-10-19T23:44:56.852Z,70.01
2022-10-19T23:50:02.399Z,70.12
2022-10-19T23:55:09.058Z,70.16
